Terminal Aerodrome Forecast
Issued by NWS Cleveland, OH

Home | Current Version | Previous Version | Graphics & Text | Print | Product List | Glossary On
Versions: 1 2 3 4 5 6 7 8 9 10 11 12 13 14 15
000
FTUS41 KCLE 270437 AAB
TAFCAK
TAF AMD
KCAK 270437Z 2705/2724 23006KT P6SM VCSH BKN040 OVC080
      TEMPO 2705/2707 5SM -SHRA BKN025
     FM270900 28008KT P6SM FEW025 SCT050
      TEMPO 2709/2713 BKN015
     FM271400 30012G18KT P6SM SCT025 BKN050=

USA.gov is the U.S. government's official web portal to all federal, state and local government web resources and services.